createdAt,value
2018-12-26T00:00:27.488Z,-2.74
2018-12-26T00:02:55.031Z,-2.76
2018-12-26T00:05:22.754Z,-2.79
2018-12-26T00:07:50.283Z,-2.80
2018-12-26T00:10:17.955Z,-2.92
2018-12-26T00:12:45.470Z,-2.94
2018-12-26T00:15:13.116Z,-2.88
2018-12-26T00:17:40.931Z,-2.79
2018-12-26T00:20:08.779Z,-2.78
2018-12-26T00:22:36.530Z,-2.81
2018-12-26T00:25:04.369Z,-2.91
2018-12-26T00:27:31.987Z,-2.98
2018-12-26T00:29:59.487Z,-2.98
2018-12-26T00:32:27.107Z,-3.00
2018-12-26T00:34:54.724Z,-3.00
2018-12-26T00:37:22.379Z,-2.96
2018-12-26T00:39:49.876Z,-2.96
2018-12-26T00:42:17.509Z,-2.99
2018-12-26T00:44:45.050Z,-2.99
2018-12-26T00:47:12.709Z,-2.94
2018-12-26T00:49:40.267Z,-2.88
2018-12-26T00:52:07.894Z,-2.92
2018-12-26T00:54:35.430Z,-2.90
2018-12-26T00:57:02.993Z,-2.91
2018-12-26T00:59:30.679Z,-2.78
2018-12-26T01:01:58.310Z,-2.79
2018-12-26T01:04:25.898Z,-2.80
2018-12-26T01:06:53.594Z,-2.62
2018-12-26T01:09:21.108Z,-2.71
2018-12-26T01:11:49.055Z,-2.73
2018-12-26T01:14:16.573Z,-2.58
2018-12-26T01:16:44.179Z,-2.47
2018-12-26T01:19:11.759Z,-2.40
2018-12-26T01:21:39.306Z,-2.53
2018-12-26T01:24:06.901Z,-2.64
2018-12-26T01:26:34.422Z,-2.73
2018-12-26T01:29:01.948Z,-2.69
2018-12-26T01:31:29.928Z,-2.75
2018-12-26T01:33:57.641Z,-2.62
2018-12-26T01:36:25.195Z,-2.58
2018-12-26T01:38:52.717Z,-2.45
2018-12-26T01:41:20.217Z,-2.49
2018-12-26T01:43:47.698Z,-2.60
2018-12-26T01:46:15.419Z,-2.64
2018-12-26T01:48:43.068Z,-2.63
2018-12-26T01:51:10.645Z,-2.63
2018-12-26T01:53:38.222Z,-2.61
2018-12-26T01:56:05.827Z,-2.64
2018-12-26T01:58:33.413Z,-2.59
2018-12-26T02:01:01.119Z,-2.62
2018-12-26T02:03:28.804Z,-2.63
2018-12-26T02:05:56.395Z,-2.62
2018-12-26T02:08:24.077Z,-2.68
2018-12-26T02:10:51.672Z,-2.61
2018-12-26T02:13:19.383Z,-2.60
2018-12-26T02:15:47.029Z,-2.58
2018-12-26T02:18:14.750Z,-2.57
2018-12-26T02:20:42.917Z,-2.41
2018-12-26T02:23:10.600Z,-2.43
2018-12-26T02:25:38.173Z,-2.59
2018-12-26T02:28:05.754Z,-2.60
2018-12-26T02:30:33.351Z,-2.63
2018-12-26T02:33:01.063Z,-2.60
2018-12-26T02:35:29.991Z,-2.69
2018-12-26T02:37:57.583Z,-2.70
2018-12-26T02:40:25.222Z,-2.57
2018-12-26T02:42:52.801Z,-2.37
2018-12-26T02:45:20.431Z,-2.50
2018-12-26T02:47:48.261Z,-2.53
2018-12-26T02:50:34.262Z,-2.53
2018-12-26T02:53:02.011Z,-2.53
2018-12-26T02:55:29.596Z,-2.53
2018-12-26T02:57:57.273Z,-2.56
2018-12-26T03:00:24.869Z,-2.57
2018-12-26T03:02:52.461Z,-2.40
2018-12-26T03:05:20.118Z,-2.34
2018-12-26T03:07:47.808Z,-2.40
2018-12-26T03:10:17.248Z,-2.39
2018-12-26T03:12:44.849Z,-2.49
2018-12-26T03:15:12.342Z,-2.55
2018-12-26T03:17:39.930Z,-2.65
2018-12-26T03:20:07.558Z,-2.65
2018-12-26T03:22:35.150Z,-2.69
2018-12-26T03:25:02.858Z,-2.66
2018-12-26T03:27:30.858Z,-2.71
2018-12-26T03:29:58.479Z,-2.71
2018-12-26T03:32:26.589Z,-2.70
2018-12-26T03:34:54.193Z,-2.70
2018-12-26T03:37:21.777Z,-2.65
2018-12-26T03:39:49.447Z,-2.67
2018-12-26T03:42:17.081Z,-2.63
2018-12-26T03:44:44.630Z,-2.64
2018-12-26T03:47:12.444Z,-2.65
2018-12-26T03:49:40.380Z,-2.70
2018-12-26T03:52:08.011Z,-2.75
2018-12-26T03:54:35.541Z,-2.83
2018-12-26T03:57:06.230Z,-2.78
2018-12-26T03:59:32.493Z,-2.81
2018-12-26T04:01:59.956Z,-2.81
2018-12-26T04:04:27.473Z,-2.84
2018-12-26T04:06:55.041Z,-2.69
2018-12-26T04:09:22.712Z,-2.62
2018-12-26T04:11:50.230Z,-2.75
2018-12-26T04:14:17.716Z,-2.81
2018-12-26T04:16:45.400Z,-3.07
2018-12-26T04:19:12.986Z,-3.06
2018-12-26T04:21:40.496Z,-3.27
2018-12-26T04:24:08.150Z,-3.37
2018-12-26T04:26:36.154Z,-3.52
2018-12-26T04:29:03.701Z,-3.60
2018-12-26T04:31:31.180Z,-3.68
2018-12-26T04:33:58.839Z,-3.64
2018-12-26T04:36:26.459Z,-3.76
2018-12-26T04:38:53.976Z,-3.70
2018-12-26T04:41:21.869Z,-3.71
2018-12-26T04:43:51.395Z,-3.88
2018-12-26T04:46:18.980Z,-3.99
2018-12-26T04:48:46.601Z,-4.10
2018-12-26T04:51:14.175Z,-4.17
2018-12-26T04:53:41.724Z,-4.12
2018-12-26T04:56:09.281Z,-4.14
2018-12-26T04:58:36.927Z,-4.13
2018-12-26T05:01:04.460Z,-4.13
2018-12-26T05:03:32.118Z,-4.10
2018-12-26T05:05:59.761Z,-4.10
2018-12-26T05:08:27.438Z,-4.12
2018-12-26T05:10:55.114Z,-4.09
2018-12-26T05:13:22.779Z,-4.28
2018-12-26T05:15:50.332Z,-4.23
2018-12-26T05:18:18.052Z,-4.21
2018-12-26T05:20:45.787Z,-4.15
2018-12-26T05:23:13.522Z,-4.26
2018-12-26T05:25:41.311Z,-4.29
2018-12-26T05:28:08.825Z,-4.40
2018-12-26T05:30:37.089Z,-4.42
2018-12-26T05:33:04.823Z,-4.30
2018-12-26T05:35:32.467Z,-4.25
2018-12-26T05:38:00.352Z,-4.23
2018-12-26T05:40:28.999Z,-4.32
2018-12-26T05:42:56.881Z,-4.30
2018-12-26T05:45:24.516Z,-4.22
2018-12-26T05:47:52.613Z,-4.16
2018-12-26T05:50:20.724Z,-3.81
2018-12-26T05:52:48.423Z,-3.70
2018-12-26T05:55:16.313Z,-3.69
2018-12-26T05:57:44.443Z,-3.66
2018-12-26T06:00:12.306Z,-3.73
2018-12-26T06:02:40.896Z,-3.60
2018-12-26T06:05:08.671Z,-3.65
2018-12-26T06:07:36.615Z,-3.49
2018-12-26T06:10:04.875Z,-3.50
2018-12-26T06:12:32.731Z,-3.51
2018-12-26T06:15:01.566Z,-3.55
2018-12-26T06:17:29.423Z,-3.50
2018-12-26T06:19:57.183Z,-3.44
2018-12-26T06:22:24.994Z,-3.43
2018-12-26T06:24:52.856Z,-3.34
2018-12-26T06:27:20.825Z,-3.28
2018-12-26T06:29:48.483Z,-3.19
2018-12-26T06:32:17.277Z,-2.92
2018-12-26T06:34:45.126Z,-2.65
2018-12-26T06:37:12.811Z,-2.62
2018-12-26T06:39:40.526Z,-2.52
2018-12-26T06:42:08.363Z,-2.40
2018-12-26T06:44:36.445Z,-2.38
2018-12-26T06:47:04.209Z,-2.21
2018-12-26T06:49:31.948Z,-2.20
2018-12-26T06:51:59.936Z,-2.23
2018-12-26T06:54:27.619Z,-2.13
2018-12-26T06:56:55.488Z,-2.17
2018-12-26T06:59:24.918Z,-2.14
2018-12-26T07:01:52.674Z,-2.17
2018-12-26T07:04:20.484Z,-2.09
2018-12-26T07:06:48.240Z,-2.30
2018-12-26T07:09:16.425Z,-2.38
2018-12-26T07:11:44.432Z,-2.27
2018-12-26T07:14:12.242Z,-1.83
2018-12-26T07:16:40.406Z,-0.88
2018-12-26T07:19:08.181Z,-0.27
2018-12-26T07:21:36.136Z,-0.21
2018-12-26T07:24:03.891Z,-0.04
2018-12-26T07:26:31.499Z,0.18
2018-12-26T07:29:01.006Z,0.19
2018-12-26T07:31:28.453Z,0.21
2018-12-26T07:33:56.087Z,0.38
2018-12-26T07:36:23.592Z,0.55
2018-12-26T07:38:51.189Z,0.94
2018-12-26T07:41:18.852Z,1.05
2018-12-26T07:43:46.408Z,0.77
2018-12-26T07:46:14.190Z,0.70
2018-12-26T07:48:41.855Z,0.93
2018-12-26T07:51:09.453Z,0.95
2018-12-26T07:53:37.084Z,1.16
2018-12-26T07:56:04.645Z,0.80
2018-12-26T07:58:32.407Z,0.85
2018-12-26T08:01:00.016Z,0.76
2018-12-26T08:03:27.619Z,0.94
2018-12-26T08:05:55.296Z,1.30
2018-12-26T08:08:22.981Z,1.33
2018-12-26T08:10:50.674Z,1.13
2018-12-26T08:13:18.483Z,0.98
2018-12-26T08:15:46.139Z,0.77
2018-12-26T08:18:13.656Z,1.00
2018-12-26T08:20:41.350Z,0.95
2018-12-26T08:23:09.414Z,1.05
2018-12-26T08:25:37.341Z,1.45
2018-12-26T08:28:05.852Z,1.51
2018-12-26T08:30:33.446Z,1.39
2018-12-26T08:33:01.138Z,1.34
2018-12-26T08:35:28.710Z,1.08
2018-12-26T08:37:56.337Z,1.10
2018-12-26T08:40:23.859Z,0.91
2018-12-26T08:42:51.565Z,0.83
2018-12-26T08:45:19.294Z,1.24
2018-12-26T08:47:46.790Z,1.12
2018-12-26T08:50:14.375Z,0.98
2018-12-26T08:52:42.138Z,0.94
2018-12-26T08:55:09.586Z,0.73
2018-12-26T08:57:37.265Z,0.73
2018-12-26T09:00:06.063Z,0.64
2018-12-26T09:02:33.646Z,0.66
2018-12-26T09:05:01.222Z,0.60
2018-12-26T09:07:29.184Z,0.48
2018-12-26T09:09:56.853Z,0.52
2018-12-26T09:12:24.385Z,0.58
2018-12-26T09:14:52.030Z,0.70
2018-12-26T09:17:19.722Z,0.50
2018-12-26T09:19:47.446Z,0.68
2018-12-26T09:22:15.231Z,0.65
2018-12-26T09:24:42.757Z,0.69
2018-12-26T09:27:12.227Z,0.76
2018-12-26T09:29:39.736Z,0.78
2018-12-26T09:32:07.348Z,0.89
2018-12-26T09:34:34.766Z,0.96
2018-12-26T09:37:02.294Z,0.87
2018-12-26T09:39:29.846Z,0.76
2018-12-26T09:41:57.289Z,0.94
2018-12-26T09:44:24.936Z,0.92
2018-12-26T09:46:52.437Z,1.11
2018-12-26T09:49:19.921Z,1.14
2018-12-26T09:51:47.702Z,1.13
2018-12-26T09:54:15.328Z,1.20
2018-12-26T09:56:43.027Z,0.98
2018-12-26T09:59:10.566Z,1.28
2018-12-26T10:01:38.343Z,1.01
2018-12-26T10:04:07.615Z,0.94
2018-12-26T10:06:35.485Z,1.12
2018-12-26T10:09:04.476Z,1.11
2018-12-26T10:11:32.487Z,1.27
2018-12-26T10:14:00.314Z,1.19
2018-12-26T10:16:28.436Z,0.96
2018-12-26T10:18:55.863Z,1.11
2018-12-26T10:21:23.481Z,1.06
2018-12-26T10:23:51.160Z,1.04
2018-12-26T10:26:18.873Z,0.96
2018-12-26T10:28:46.784Z,0.93
2018-12-26T10:31:14.480Z,0.93
2018-12-26T10:33:42.100Z,0.94
2018-12-26T10:36:09.795Z,1.08
2018-12-26T10:38:37.326Z,1.08
2018-12-26T10:41:04.826Z,0.96
2018-12-26T10:43:32.410Z,0.94
2018-12-26T10:46:00.000Z,1.15
2018-12-26T10:48:27.656Z,1.19
2018-12-26T10:50:55.363Z,1.33
2018-12-26T10:53:23.082Z,1.09
2018-12-26T10:55:50.700Z,1.19
2018-12-26T10:58:18.263Z,1.26
2018-12-26T11:00:45.786Z,1.15
2018-12-26T11:03:13.525Z,1.29
2018-12-26T11:05:41.016Z,1.37
2018-12-26T11:08:08.584Z,1.33
2018-12-26T11:10:37.045Z,1.26
2018-12-26T11:13:04.806Z,1.19
2018-12-26T11:15:32.420Z,1.09
2018-12-26T11:18:00.235Z,1.19
2018-12-26T11:20:27.896Z,1.27
2018-12-26T11:22:55.616Z,1.39
2018-12-26T11:25:24.115Z,1.48
2018-12-26T11:27:53.017Z,1.25
2018-12-26T11:30:21.217Z,1.25
2018-12-26T11:32:49.041Z,1.22
2018-12-26T11:35:17.096Z,1.38
2018-12-26T11:37:44.879Z,1.48
2018-12-26T11:40:12.648Z,1.59
2018-12-26T11:42:40.434Z,1.59
2018-12-26T11:45:08.513Z,1.75
2018-12-26T11:47:36.258Z,1.58
2018-12-26T11:50:04.965Z,1.62
2018-12-26T11:52:32.497Z,1.46
2018-12-26T11:55:00.244Z,1.55
2018-12-26T11:57:27.886Z,1.65
2018-12-26T11:59:55.750Z,1.69
2018-12-26T12:02:23.360Z,1.73
2018-12-26T12:04:51.260Z,1.41
2018-12-26T12:07:18.999Z,1.39
2018-12-26T12:09:46.698Z,1.37
2018-12-26T12:12:14.560Z,1.35
2018-12-26T12:14:42.587Z,1.31
2018-12-26T12:17:10.177Z,1.24
2018-12-26T12:19:37.858Z,1.35
2018-12-26T12:22:05.475Z,1.23
2018-12-26T12:24:32.919Z,1.37
2018-12-26T12:27:00.387Z,1.34
2018-12-26T12:29:35.815Z,1.35
2018-12-26T12:31:57.628Z,1.59
2018-12-26T12:34:25.269Z,1.69
2018-12-26T12:36:52.975Z,1.76
2018-12-26T12:39:20.541Z,1.65
2018-12-26T12:41:48.082Z,1.51
2018-12-26T12:44:15.592Z,1.31
2018-12-26T12:46:43.100Z,1.37
2018-12-26T12:49:11.128Z,1.45
2018-12-26T12:51:39.072Z,1.30
2018-12-26T12:54:06.724Z,1.48
2018-12-26T12:56:34.547Z,1.42
2018-12-26T12:59:02.469Z,1.48
2018-12-26T13:01:30.459Z,1.49
2018-12-26T13:03:58.039Z,1.64
2018-12-26T13:06:25.630Z,1.76
2018-12-26T13:08:53.105Z,1.61
2018-12-26T13:11:20.635Z,1.59
2018-12-26T13:13:48.347Z,1.53
2018-12-26T13:16:16.063Z,1.61
2018-12-26T13:18:43.825Z,1.49
2018-12-26T13:21:11.648Z,1.28
2018-12-26T13:23:39.540Z,1.27
2018-12-26T13:26:07.253Z,1.17
2018-12-26T13:28:34.959Z,1.21
2018-12-26T13:31:05.091Z,1.31
2018-12-26T13:33:32.525Z,1.24
2018-12-26T13:36:00.348Z,1.22
2018-12-26T13:38:28.093Z,1.21
2018-12-26T13:40:55.957Z,1.20
2018-12-26T13:43:23.704Z,1.22
2018-12-26T13:45:52.153Z,1.06
2018-12-26T13:48:19.729Z,1.15
2018-12-26T13:50:47.520Z,1.05
2018-12-26T13:53:15.173Z,1.09
2018-12-26T13:55:42.936Z,1.02
2018-12-26T13:58:10.680Z,1.01
2018-12-26T14:00:38.198Z,0.99
2018-12-26T14:03:05.714Z,1.01
2018-12-26T14:05:34.581Z,1.01
2018-12-26T14:08:02.387Z,0.92
2018-12-26T14:10:30.031Z,0.91
2018-12-26T14:12:57.683Z,0.88
2018-12-26T14:15:26.243Z,0.87
2018-12-26T14:17:54.134Z,0.82
2018-12-26T14:20:21.847Z,0.76
2018-12-26T14:22:49.384Z,0.81
2018-12-26T14:25:17.104Z,0.80
2018-12-26T14:27:44.719Z,0.78
2018-12-26T14:30:12.465Z,0.83
2018-12-26T14:32:40.386Z,0.82
2018-12-26T14:35:07.895Z,0.74
2018-12-26T14:37:35.599Z,0.61
2018-12-26T14:40:03.862Z,0.61
2018-12-26T14:42:31.564Z,0.51
2018-12-26T14:44:59.214Z,0.47
2018-12-26T14:47:27.713Z,0.54
2018-12-26T14:49:55.479Z,0.51
2018-12-26T14:52:23.143Z,0.51
2018-12-26T14:54:51.139Z,0.51
2018-12-26T14:57:19.052Z,0.48
2018-12-26T14:59:46.691Z,0.46
2018-12-26T15:02:14.778Z,0.48
2018-12-26T15:04:42.921Z,0.51
2018-12-26T15:07:10.628Z,0.43
2018-12-26T15:09:39.985Z,0.53
2018-12-26T15:12:07.781Z,0.47
2018-12-26T15:14:35.907Z,0.43
2018-12-26T15:17:03.881Z,0.47
2018-12-26T15:19:31.595Z,0.46
2018-12-26T15:22:01.444Z,0.43
2018-12-26T15:24:29.458Z,0.32
2018-12-26T15:26:57.421Z,0.36
2018-12-26T15:29:25.205Z,0.36
2018-12-26T15:31:52.787Z,0.34
2018-12-26T15:34:20.536Z,0.26
2018-12-26T15:36:48.513Z,0.28
2018-12-26T15:39:16.269Z,0.19
2018-12-26T15:41:45.113Z,0.15
2018-12-26T15:44:12.737Z,0.21
2018-12-26T15:46:40.468Z,0.18
2018-12-26T15:49:08.218Z,0.16
2018-12-26T15:51:35.924Z,0.23
2018-12-26T15:54:03.865Z,0.30
2018-12-26T15:56:31.718Z,0.19
2018-12-26T15:58:59.632Z,0.14
2018-12-26T16:01:27.278Z,0.10
2018-12-26T16:03:54.934Z,0.09
2018-12-26T16:06:22.649Z,0.05
2018-12-26T16:08:50.447Z,0.19
2018-12-26T16:11:18.163Z,0.23
2018-12-26T16:13:45.780Z,0.19
2018-12-26T16:16:13.746Z,0.18
2018-12-26T16:18:41.597Z,0.18
2018-12-26T16:21:09.545Z,0.14
2018-12-26T16:23:37.231Z,0.17
2018-12-26T16:26:05.010Z,0.19
2018-12-26T16:28:32.734Z,0.13
2018-12-26T16:31:02.171Z,0.10
2018-12-26T16:33:30.063Z,0.24
2018-12-26T16:35:57.776Z,0.30
2018-12-26T16:38:25.921Z,0.17
2018-12-26T16:40:54.086Z,0.09
2018-12-26T16:43:21.963Z,0.05
2018-12-26T16:45:49.934Z,-0.02
2018-12-26T16:48:17.586Z,-0.04
2018-12-26T16:50:45.184Z,-0.06
2018-12-26T16:53:13.030Z,-0.12
2018-12-26T16:55:40.743Z,-0.15
2018-12-26T16:58:08.494Z,-0.15
2018-12-26T17:00:36.249Z,-0.14
2018-12-26T17:03:03.694Z,-0.11
2018-12-26T17:05:31.672Z,-0.10
2018-12-26T17:07:59.270Z,-0.09
2018-12-26T17:10:26.790Z,-0.09
2018-12-26T17:12:54.496Z,-0.11
2018-12-26T17:15:22.163Z,-0.06
2018-12-26T17:17:49.820Z,-0.04
2018-12-26T17:20:17.374Z,-0.01
2018-12-26T17:22:44.949Z,0.05
2018-12-26T17:25:14.652Z,0.02
2018-12-26T17:27:42.461Z,0.20
2018-12-26T17:30:10.341Z,0.15
2018-12-26T17:32:37.961Z,0.17
2018-12-26T17:35:05.548Z,0.10
2018-12-26T17:37:33.116Z,0.06
2018-12-26T17:40:00.894Z,0.21
2018-12-26T17:42:28.718Z,0.22
2018-12-26T17:44:56.273Z,0.18
2018-12-26T17:47:23.865Z,0.05
2018-12-26T17:50:28.913Z,0.20
2018-12-26T17:52:56.677Z,0.06
2018-12-26T17:55:53.252Z,0.00
2018-12-26T17:58:21.058Z,-0.07
2018-12-26T18:01:00.824Z,-0.08
2018-12-26T18:03:28.369Z,-0.08
2018-12-26T18:05:56.063Z,0.01
2018-12-26T18:08:23.861Z,-0.05
2018-12-26T18:10:51.617Z,-0.14
2018-12-26T18:13:19.186Z,-0.15
2018-12-26T18:15:47.289Z,-0.04
2018-12-26T18:18:15.339Z,-0.07
2018-12-26T18:20:43.179Z,-0.05
2018-12-26T18:23:11.127Z,-0.06
2018-12-26T18:25:38.708Z,-0.11
2018-12-26T18:28:06.535Z,-0.04
2018-12-26T18:30:34.193Z,0.02
2018-12-26T18:33:01.764Z,-0.12
2018-12-26T18:35:30.197Z,-0.10
2018-12-26T18:37:58.109Z,-0.09
2018-12-26T18:40:26.070Z,-0.06
2018-12-26T18:42:54.961Z,-0.17
2018-12-26T18:45:22.775Z,-0.13
2018-12-26T18:47:52.039Z,-0.14
2018-12-26T18:50:19.969Z,-0.10
2018-12-26T18:52:48.304Z,-0.04
2018-12-26T18:55:16.325Z,-0.04
2018-12-26T18:57:44.434Z,-0.12
2018-12-26T19:00:13.509Z,-0.02
2018-12-26T19:02:41.905Z,0.04
2018-12-26T19:05:11.068Z,-0.05
2018-12-26T19:07:39.131Z,-0.12
2018-12-26T19:10:08.703Z,-0.11
2018-12-26T19:12:36.511Z,0.06
2018-12-26T19:15:05.008Z,0.09
2018-12-26T19:17:32.599Z,0.01
2018-12-26T19:20:00.449Z,-0.06
2018-12-26T19:22:28.235Z,0.07
2018-12-26T19:24:55.964Z,-0.05
2018-12-26T19:27:23.972Z,-0.01
2018-12-26T19:29:59.170Z,0.01
2018-12-26T19:32:21.282Z,-0.10
2018-12-26T19:34:48.844Z,-0.17
2018-12-26T19:37:16.816Z,-0.25
2018-12-26T19:39:44.364Z,-0.27
2018-12-26T19:42:12.062Z,-0.17
2018-12-26T19:44:39.601Z,-0.24
2018-12-26T19:47:08.590Z,-0.23
2018-12-26T19:49:38.142Z,-0.25
2018-12-26T19:52:06.173Z,-0.25
2018-12-26T19:54:34.087Z,-0.15
2018-12-26T19:57:02.170Z,-0.21
2018-12-26T19:59:29.739Z,-0.25
2018-12-26T20:01:57.382Z,-0.30
2018-12-26T20:04:25.317Z,-0.36
2018-12-26T20:06:53.000Z,-0.37
2018-12-26T20:09:20.819Z,-0.41
2018-12-26T20:11:48.824Z,-0.37
2018-12-26T20:14:16.351Z,-0.40
2018-12-26T20:16:44.253Z,-0.44
2018-12-26T20:19:12.343Z,-0.46
2018-12-26T20:21:40.033Z,-0.46
2018-12-26T20:24:07.897Z,-0.46
2018-12-26T20:26:35.752Z,-0.45
2018-12-26T20:29:03.477Z,-0.46
2018-12-26T20:31:31.032Z,-0.48
2018-12-26T20:33:58.747Z,-0.48
2018-12-26T20:36:28.579Z,-0.50
2018-12-26T20:38:56.290Z,-0.49
2018-12-26T20:41:23.891Z,-0.52
2018-12-26T20:43:51.829Z,-0.50
2018-12-26T20:46:19.546Z,-0.52
2018-12-26T20:48:47.113Z,-0.55
2018-12-26T20:51:14.787Z,-0.56
2018-12-26T20:53:42.795Z,-0.58
2018-12-26T20:56:10.476Z,-0.55
2018-12-26T20:58:38.231Z,-0.58
2018-12-26T21:01:08.016Z,-0.59
2018-12-26T21:03:35.632Z,-0.61
2018-12-26T21:06:03.202Z,-0.61
2018-12-26T21:08:31.055Z,-0.61
2018-12-26T21:10:58.658Z,-0.60
2018-12-26T21:13:26.431Z,-0.57
2018-12-26T21:15:54.070Z,-0.55
2018-12-26T21:18:21.669Z,-0.52
2018-12-26T21:20:49.612Z,-0.51
2018-12-26T21:23:17.401Z,-0.51
2018-12-26T21:25:46.767Z,-0.54
2018-12-26T21:28:16.688Z,-0.55
2018-12-26T21:30:45.014Z,-0.53
2018-12-26T21:33:12.742Z,-0.56
2018-12-26T21:35:40.384Z,-0.59
2018-12-26T21:38:08.081Z,-0.61
2018-12-26T21:40:35.702Z,-0.62
2018-12-26T21:43:03.402Z,-0.62
2018-12-26T21:45:31.101Z,-0.62
2018-12-26T21:47:58.630Z,-0.60
2018-12-26T21:50:26.215Z,-0.58
2018-12-26T21:52:55.765Z,-0.58
2018-12-26T21:55:26.264Z,-0.58
2018-12-26T21:57:54.129Z,-0.59
2018-12-26T22:00:21.792Z,-0.57
2018-12-26T22:02:49.487Z,-0.56
2018-12-26T22:05:18.575Z,-0.57
2018-12-26T22:07:46.850Z,-0.56
2018-12-26T22:10:14.568Z,-0.56
2018-12-26T22:12:42.236Z,-0.56
2018-12-26T22:15:09.907Z,-0.55
2018-12-26T22:17:37.456Z,-0.60
2018-12-26T22:20:06.127Z,-0.53
2018-12-26T22:22:34.446Z,-0.50
2018-12-26T22:25:02.152Z,-0.55
2018-12-26T22:27:29.978Z,-0.55
2018-12-26T22:29:57.783Z,-0.54
2018-12-26T22:32:30.570Z,-0.54
2018-12-26T22:34:56.026Z,-0.54
2018-12-26T22:37:25.419Z,-0.53
2018-12-26T22:39:55.248Z,-0.53
2018-12-26T22:42:23.678Z,-0.54
2018-12-26T22:44:51.474Z,-0.54
2018-12-26T22:47:19.265Z,-0.53
2018-12-26T22:49:48.851Z,-0.52
2018-12-26T22:52:16.492Z,-0.56
2018-12-26T22:54:46.177Z,-0.56
2018-12-26T22:57:14.233Z,-0.55
2018-12-26T22:59:41.780Z,-0.53
2018-12-26T23:02:09.611Z,-0.56
2018-12-26T23:04:37.255Z,-0.61
2018-12-26T23:07:04.808Z,-0.63
2018-12-26T23:09:32.439Z,-0.64
2018-12-26T23:11:59.969Z,-0.61
2018-12-26T23:14:27.643Z,-0.60
2018-12-26T23:16:55.263Z,-0.58
2018-12-26T23:19:22.821Z,-0.61
2018-12-26T23:21:50.427Z,-0.63
2018-12-26T23:24:18.035Z,-0.64
2018-12-26T23:26:45.719Z,-0.69
2018-12-26T23:29:13.330Z,-0.69
2018-12-26T23:31:40.944Z,-0.68
2018-12-26T23:34:08.555Z,-0.67
2018-12-26T23:36:36.042Z,-0.64
2018-12-26T23:39:05.808Z,-0.61
2018-12-26T23:41:33.465Z,-0.60
2018-12-26T23:44:01.358Z,-0.60
2018-12-26T23:46:28.965Z,-0.68
2018-12-26T23:48:56.554Z,-0.69
2018-12-26T23:51:24.058Z,-0.65
2018-12-26T23:53:51.579Z,-0.61
2018-12-26T23:56:19.179Z,-0.63
2018-12-26T23:58:46.766Z,-0.68
